createdAt,value
2024-05-09T00:00:10.410Z,93.84
2024-05-09T00:00:29.633Z,93.84
2024-05-09T00:00:35.261Z,93.84
2024-05-09T00:01:23.001Z,93.84
2024-05-09T00:01:32.138Z,93.84
2024-05-09T00:01:43.064Z,93.93
2024-05-09T00:01:53.568Z,93.93
2024-05-09T00:02:05.800Z,93.93
2024-05-09T00:02:15.155Z,93.93
2024-05-09T00:02:26.205Z,93.93
2024-05-09T00:02:36.626Z,94.04
2024-05-09T00:02:47.145Z,94.04
2024-05-09T00:02:58.950Z,94.04
2024-05-09T00:03:10.196Z,94.04
2024-05-09T00:03:19.874Z,94.04
2024-05-09T00:03:30.375Z,93.93
2024-05-09T00:03:40.886Z,93.98
2024-05-09T00:03:51.912Z,93.93
2024-05-09T00:04:02.814Z,93.98
2024-05-09T00:04:13.813Z,93.98
2024-05-09T00:04:24.751Z,93.98
2024-05-09T00:04:35.674Z,93.98
2024-05-09T00:04:46.656Z,93.98
2024-05-09T00:04:57.448Z,93.98
2024-05-09T00:05:07.968Z,93.98
2024-05-09T00:05:18.676Z,93.98
2024-05-09T00:05:29.195Z,93.98
2024-05-09T00:05:39.769Z,93.98
2024-05-09T00:05:50.153Z,93.98
2024-05-09T00:06:01.036Z,93.88
2024-05-09T00:06:11.504Z,93.88
2024-05-09T00:06:22.121Z,93.88
2024-05-09T00:06:33.017Z,93.88
2024-05-09T00:06:43.952Z,93.77
2024-05-09T00:06:54.999Z,93.77
2024-05-09T00:07:05.955Z,93.77
2024-05-09T00:07:16.833Z,93.77
2024-05-09T00:07:27.779Z,93.77
2024-05-09T00:07:38.577Z,93.77
2024-05-09T00:07:49.579Z,93.67
2024-05-09T00:08:00.497Z,93.67
2024-05-09T00:08:11.752Z,93.67
2024-05-09T00:08:23.221Z,93.67
2024-05-09T00:08:33.240Z,93.67
2024-05-09T00:08:43.679Z,93.67
2024-05-09T00:08:54.574Z,93.67
2024-05-09T00:09:05.403Z,93.77
2024-05-09T00:09:16.262Z,93.77
2024-05-09T00:09:27.223Z,93.77
2024-05-09T00:09:38.160Z,93.88
2024-05-09T00:09:49.094Z,93.88
2024-05-09T00:09:59.985Z,93.88
2024-05-09T00:10:18.276Z,93.88
2024-05-09T00:10:29.242Z,93.98
2024-05-09T00:10:37.317Z,93.98
2024-05-09T00:10:44.392Z,93.98
2024-05-09T00:10:54.231Z,93.98
2024-05-09T00:11:05.237Z,93.98
2024-05-09T00:11:15.840Z,93.98
2024-05-09T00:11:26.441Z,93.98
2024-05-09T00:11:36.926Z,94.08
2024-05-09T00:11:47.855Z,94.18
2024-05-09T00:11:58.418Z,94.18
2024-05-09T00:12:09.109Z,94.18
2024-05-09T00:12:19.767Z,94.29
2024-05-09T00:12:31.500Z,94.29
2024-05-09T00:12:41.485Z,94.29
2024-05-09T00:12:52.339Z,94.29
2024-05-09T00:13:03.154Z,94.39
2024-05-09T00:13:14.026Z,94.39
2024-05-09T00:13:24.996Z,94.39
2024-05-09T00:13:35.926Z,94.29
2024-05-09T00:13:46.809Z,94.29
2024-05-09T00:13:57.725Z,94.29
2024-05-09T00:14:08.604Z,94.29
2024-05-09T00:14:19.620Z,94.29
2024-05-09T00:14:30.559Z,94.29
2024-05-09T00:14:42.265Z,94.29
2024-05-09T00:14:52.182Z,94.33
2024-05-09T00:15:03.043Z,94.23
2024-05-09T00:15:14.001Z,94.23
2024-05-09T00:15:24.933Z,94.23
2024-05-09T00:15:36.457Z,94.12
2024-05-09T00:15:46.625Z,94.12
2024-05-09T00:15:57.563Z,94.23
2024-05-09T00:16:08.440Z,94.23
2024-05-09T00:16:19.071Z,94.33
2024-05-09T00:16:29.982Z,94.33
2024-05-09T00:16:40.891Z,94.33
2024-05-09T00:16:51.678Z,94.33
2024-05-09T00:17:02.624Z,94.43
2024-05-09T00:17:13.630Z,94.43
2024-05-09T00:17:24.729Z,94.43
2024-05-09T00:17:35.252Z,94.54
2024-05-09T00:17:46.533Z,94.64
2024-05-09T00:17:56.795Z,94.64
2024-05-09T00:18:08.044Z,94.64
2024-05-09T00:18:18.069Z,94.74
2024-05-09T00:18:29.721Z,94.74
2024-05-09T00:18:39.196Z,94.74
2024-05-09T00:18:50.185Z,94.74
2024-05-09T00:19:00.614Z,94.74
2024-05-09T00:19:11.755Z,94.74
2024-05-09T00:19:22.417Z,94.74
2024-05-09T00:19:32.968Z,94.74
2024-05-09T00:19:43.956Z,94.74
2024-05-09T00:19:54.838Z,94.74
2024-05-09T00:20:14.260Z,94.74
2024-05-09T00:20:24.162Z,94.74
2024-05-09T00:20:36.245Z,94.74
2024-05-09T00:20:41.033Z,94.74
2024-05-09T00:21:30.108Z,94.74
2024-05-09T00:21:40.663Z,94.74
2024-05-09T00:21:51.595Z,94.74
2024-05-09T00:22:02.428Z,94.74
2024-05-09T00:22:13.723Z,94.74
2024-05-09T00:22:24.107Z,94.74
2024-05-09T00:22:34.971Z,94.74
2024-05-09T00:22:45.875Z,94.84
2024-05-09T00:22:56.396Z,94.95
2024-05-09T00:23:08.000Z,95.05
2024-05-09T00:23:18.183Z,95.05
2024-05-09T00:23:29.271Z,95.15
2024-05-09T00:23:40.545Z,95.20
2024-05-09T00:23:50.434Z,95.20
2024-05-09T00:24:01.352Z,95.20
2024-05-09T00:24:11.874Z,95.20
2024-05-09T00:24:22.876Z,95.20
2024-05-09T00:24:33.809Z,95.29
2024-05-09T00:24:44.676Z,95.40
2024-05-09T00:24:55.629Z,95.50
2024-05-09T00:25:06.577Z,95.61
2024-05-09T00:25:17.244Z,95.61
2024-05-09T00:25:28.159Z,95.70
2024-05-09T00:25:39.959Z,95.70
2024-05-09T00:25:49.898Z,95.70
2024-05-09T00:26:00.865Z,95.70
2024-05-09T00:26:11.626Z,95.70
2024-05-09T00:26:22.608Z,95.81
2024-05-09T00:26:33.108Z,95.81
2024-05-09T00:26:44.076Z,95.91
2024-05-09T00:26:54.914Z,95.91
2024-05-09T00:27:05.844Z,96.01
2024-05-09T00:27:16.412Z,96.01
2024-05-09T00:27:28.240Z,96.12
2024-05-09T00:27:38.112Z,96.12
2024-05-09T00:27:49.843Z,96.22
2024-05-09T00:27:59.765Z,96.22
2024-05-09T00:28:10.619Z,96.22
2024-05-09T00:28:21.535Z,96.22
2024-05-09T00:28:32.308Z,96.22
2024-05-09T00:28:43.141Z,96.12
2024-05-09T00:28:53.998Z,96.12
2024-05-09T00:29:04.959Z,96.12
2024-05-09T00:29:15.919Z,96.01
2024-05-09T00:29:26.856Z,96.01
2024-05-09T00:29:37.801Z,95.91
2024-05-09T00:29:48.693Z,95.91
2024-05-09T00:30:00.427Z,95.91
2024-05-09T00:30:14.381Z,95.91
2024-05-09T00:30:31.059Z,95.91
2024-05-09T00:30:35.506Z,96.01
2024-05-09T00:30:42.905Z,96.01
2024-05-09T00:30:54.930Z,96.01
2024-05-09T00:31:04.315Z,96.01
2024-05-09T00:31:15.183Z,96.01
2024-05-09T00:31:25.960Z,96.01
2024-05-09T00:31:36.846Z,96.12
2024-05-09T00:31:47.812Z,96.12
2024-05-09T00:31:58.759Z,96.12
2024-05-09T00:32:09.234Z,96.12
2024-05-09T00:32:20.229Z,96.12
2024-05-09T00:32:30.904Z,96.12
2024-05-09T00:32:41.443Z,96.12
2024-05-09T00:32:52.269Z,96.22
2024-05-09T00:33:02.856Z,96.12
2024-05-09T00:33:14.670Z,96.12
2024-05-09T00:33:24.591Z,96.12
2024-05-09T00:33:35.130Z,96.12
2024-05-09T00:33:46.910Z,96.12
2024-05-09T00:33:56.647Z,96.22
2024-05-09T00:34:07.456Z,96.22
2024-05-09T00:34:17.891Z,96.12
2024-05-09T00:34:29.024Z,96.12
2024-05-09T00:34:39.443Z,96.12
2024-05-09T00:34:50.512Z,96.12
2024-05-09T00:35:01.448Z,96.12
2024-05-09T00:35:12.443Z,96.01
2024-05-09T00:35:23.618Z,96.01
2024-05-09T00:35:34.119Z,96.01
2024-05-09T00:35:45.483Z,96.01
2024-05-09T00:35:55.382Z,96.01
2024-05-09T00:36:06.286Z,95.91
2024-05-09T00:36:17.146Z,95.91
2024-05-09T00:36:28.028Z,95.91
2024-05-09T00:36:38.935Z,96.01
2024-05-09T00:36:49.827Z,96.01
2024-05-09T00:37:00.779Z,96.01
2024-05-09T00:37:11.701Z,96.01
2024-05-09T00:37:22.578Z,96.01
2024-05-09T00:37:33.501Z,96.01
2024-05-09T00:37:44.383Z,96.01
2024-05-09T00:37:55.360Z,96.12
2024-05-09T00:38:06.473Z,96.12
2024-05-09T00:38:17.026Z,96.12
2024-05-09T00:38:27.988Z,96.12
2024-05-09T00:38:38.886Z,96.12
2024-05-09T00:38:49.810Z,96.12
2024-05-09T00:39:00.723Z,96.12
2024-05-09T00:39:11.640Z,96.12
2024-05-09T00:39:22.532Z,96.12
2024-05-09T00:39:33.436Z,96.12
2024-05-09T00:39:44.354Z,96.12
2024-05-09T00:39:55.337Z,96.12
2024-05-09T00:40:09.532Z,96.22
2024-05-09T00:40:26.558Z,96.22
2024-05-09T00:40:35.751Z,96.22
2024-05-09T00:40:42.186Z,96.22
2024-05-09T00:40:49.362Z,96.22
2024-05-09T00:41:00.263Z,96.22
2024-05-09T00:41:11.344Z,96.22
2024-05-09T00:41:21.768Z,96.22
2024-05-09T00:41:32.727Z,96.12
2024-05-09T00:41:43.662Z,96.12
2024-05-09T00:41:54.550Z,96.12
2024-05-09T00:42:05.470Z,96.12
2024-05-09T00:42:16.415Z,96.16
2024-05-09T00:42:27.323Z,96.12
2024-05-09T00:42:38.243Z,96.16
2024-05-09T00:42:49.133Z,96.16
2024-05-09T00:43:00.064Z,96.06
2024-05-09T00:43:11.737Z,96.06
2024-05-09T00:43:21.792Z,96.06
2024-05-09T00:43:32.718Z,96.06
2024-05-09T00:43:43.614Z,96.06
2024-05-09T00:43:54.526Z,95.95
2024-05-09T00:44:05.546Z,95.95
2024-05-09T00:44:16.491Z,95.95
2024-05-09T00:44:27.506Z,95.95
2024-05-09T00:44:37.966Z,95.95
2024-05-09T00:44:48.890Z,95.95
2024-05-09T00:44:59.832Z,95.95
2024-05-09T00:45:10.666Z,95.95
2024-05-09T00:45:22.467Z,95.95
2024-05-09T00:45:32.415Z,95.95
2024-05-09T00:45:43.945Z,95.95
2024-05-09T00:45:54.105Z,95.95
2024-05-09T00:46:05.883Z,95.95
2024-05-09T00:46:15.651Z,95.95
2024-05-09T00:46:26.534Z,95.95
2024-05-09T00:46:37.476Z,95.95
2024-05-09T00:46:48.420Z,95.95
2024-05-09T00:46:59.448Z,95.95
2024-05-09T00:47:10.032Z,95.95
2024-05-09T00:47:20.567Z,95.95
2024-05-09T00:47:31.508Z,95.95
2024-05-09T00:47:42.119Z,96.06
2024-05-09T00:47:52.811Z,96.06
2024-05-09T00:48:03.736Z,96.06
2024-05-09T00:48:17.614Z,96.06
2024-05-09T00:48:25.246Z,96.06
2024-05-09T00:48:35.794Z,96.16
2024-05-09T00:48:47.624Z,96.16
2024-05-09T00:48:57.600Z,96.16
2024-05-09T00:49:08.161Z,96.16
2024-05-09T00:49:19.049Z,96.16
2024-05-09T00:49:30.712Z,96.16
2024-05-09T00:49:40.519Z,96.16
2024-05-09T00:49:51.073Z,96.16
2024-05-09T00:50:04.145Z,96.16
2024-05-09T00:50:19.046Z,96.16
2024-05-09T00:50:36.873Z,96.20
2024-05-09T00:50:44.815Z,96.26
2024-05-09T00:50:55.526Z,96.31
2024-05-09T00:51:06.411Z,96.31
2024-05-09T00:51:16.892Z,96.31
2024-05-09T00:51:27.431Z,96.31
2024-05-09T00:51:38.312Z,96.31
2024-05-09T00:51:49.246Z,96.31
2024-05-09T00:51:59.696Z,96.31
2024-05-09T00:52:10.594Z,96.31
2024-05-09T00:52:21.304Z,96.20
2024-05-09T00:52:33.046Z,96.20
2024-05-09T00:52:43.007Z,96.20
2024-05-09T00:52:53.917Z,96.20
2024-05-09T00:53:04.843Z,96.20
2024-05-09T00:53:15.930Z,96.20
2024-05-09T00:53:26.381Z,96.20
2024-05-09T00:53:37.280Z,96.20
2024-05-09T00:53:48.210Z,96.20
2024-05-09T00:53:58.724Z,96.20
2024-05-09T00:54:09.310Z,96.20
2024-05-09T00:54:20.170Z,96.20
2024-05-09T00:54:31.113Z,96.20
2024-05-09T00:54:42.034Z,96.20
2024-05-09T00:54:52.703Z,96.10
2024-05-09T00:55:03.591Z,96.10
2024-05-09T00:55:14.495Z,96.00
2024-05-09T00:55:25.461Z,96.00
2024-05-09T00:55:36.359Z,96.00
2024-05-09T00:55:47.276Z,96.00
2024-05-09T00:55:58.219Z,96.00
2024-05-09T00:56:08.776Z,96.00
2024-05-09T00:56:19.701Z,96.00
2024-05-09T00:56:30.726Z,96.00
2024-05-09T00:56:41.757Z,96.00
2024-05-09T00:56:52.178Z,96.00
2024-05-09T00:57:03.071Z,95.90
2024-05-09T00:57:13.960Z,95.90
2024-05-09T00:57:25.453Z,95.90
2024-05-09T00:57:35.419Z,95.90
2024-05-09T00:57:46.301Z,95.79
2024-05-09T00:57:57.223Z,95.84
2024-05-09T00:58:08.272Z,95.84
2024-05-09T00:58:18.697Z,95.69
2024-05-09T00:58:29.600Z,95.69
2024-05-09T00:58:40.306Z,95.74
2024-05-09T00:58:51.204Z,95.74
2024-05-09T00:59:02.205Z,95.74
2024-05-09T00:59:13.115Z,95.84
2024-05-09T00:59:23.860Z,95.84
2024-05-09T00:59:34.404Z,95.84
2024-05-09T00:59:45.227Z,95.94
2024-05-09T00:59:56.124Z,95.94
2024-05-09T01:00:15.017Z,95.94
2024-05-09T01:00:26.859Z,96.04
2024-05-09T01:00:35.782Z,96.04
2024-05-09T01:00:41.402Z,96.04
2024-05-09T01:00:50.140Z,96.04
2024-05-09T01:01:01.093Z,96.15
2024-05-09T01:01:12.005Z,96.15
2024-05-09T01:01:22.934Z,96.15
2024-05-09T01:01:33.993Z,96.15
2024-05-09T01:01:44.785Z,96.15
2024-05-09T01:01:55.450Z,96.25
2024-05-09T01:02:07.179Z,96.25
2024-05-09T01:02:17.170Z,96.25
2024-05-09T01:02:27.877Z,96.25
2024-05-09T01:02:38.868Z,96.25
2024-05-09T01:02:49.968Z,96.25
2024-05-09T01:03:00.551Z,96.25
2024-05-09T01:03:13.077Z,96.25
2024-05-09T01:03:22.637Z,96.25
2024-05-09T01:03:32.989Z,96.35
2024-05-09T01:03:45.272Z,96.35
2024-05-09T01:03:54.458Z,96.45
2024-05-09T01:04:05.035Z,96.45
2024-05-09T01:04:15.469Z,96.56
2024-05-09T01:04:26.402Z,96.66
2024-05-09T01:04:37.332Z,96.66
2024-05-09T01:04:48.259Z,96.77
2024-05-09T01:04:59.030Z,96.77
2024-05-09T01:05:10.219Z,96.87
2024-05-09T01:05:21.696Z,96.87
2024-05-09T01:05:31.716Z,96.87
2024-05-09T01:05:43.100Z,96.87
2024-05-09T01:06:34.651Z,96.97
2024-05-09T01:06:45.756Z,97.12
2024-05-09T01:06:56.155Z,97.07
2024-05-09T01:07:07.208Z,97.12
2024-05-09T01:07:17.779Z,97.12
2024-05-09T01:07:31.142Z,97.12
2024-05-09T01:07:39.816Z,97.12
2024-05-09T01:07:50.600Z,97.22
2024-05-09T01:08:00.428Z,97.22
2024-05-09T01:08:11.148Z,97.22
2024-05-09T01:08:21.834Z,97.32
2024-05-09T01:08:32.328Z,97.32
2024-05-09T01:08:43.026Z,97.32
2024-05-09T01:08:53.943Z,97.32
2024-05-09T01:09:04.842Z,97.32
2024-05-09T01:09:15.716Z,97.32
2024-05-09T01:09:26.612Z,97.42
2024-05-09T01:09:37.513Z,97.42
2024-05-09T01:09:48.424Z,97.42
2024-05-09T01:09:59.200Z,97.42
2024-05-09T01:10:14.330Z,97.42
2024-05-09T01:10:27.995Z,97.42
2024-05-09T01:10:35.047Z,97.42
2024-05-09T01:10:45.229Z,97.42
2024-05-09T01:10:53.256Z,97.53
2024-05-09T01:11:03.792Z,97.42
2024-05-09T01:11:14.607Z,97.53
2024-05-09T01:11:25.152Z,97.53
2024-05-09T01:11:35.773Z,97.53
2024-05-09T01:11:46.768Z,97.53
2024-05-09T01:11:57.724Z,97.53
2024-05-09T01:12:08.498Z,97.63
2024-05-09T01:12:20.187Z,97.63
2024-05-09T01:12:29.931Z,97.63
2024-05-09T01:12:40.776Z,97.63
2024-05-09T01:12:51.628Z,97.73
2024-05-09T01:13:02.397Z,97.73
2024-05-09T01:13:13.351Z,97.73
2024-05-09T01:13:24.238Z,97.73
2024-05-09T01:13:35.134Z,97.83
2024-05-09T01:13:46.095Z,97.83
2024-05-09T01:13:56.994Z,97.83
2024-05-09T01:14:07.915Z,97.83
2024-05-09T01:14:19.696Z,97.83
2024-05-09T01:14:29.688Z,97.83
2024-05-09T01:14:41.313Z,97.83
2024-05-09T01:14:52.131Z,97.83
2024-05-09T01:15:02.013Z,97.83
2024-05-09T01:15:12.892Z,97.83
2024-05-09T01:15:23.774Z,97.73
2024-05-09T01:15:34.671Z,97.73
2024-05-09T01:15:45.210Z,97.73
2024-05-09T01:15:56.083Z,97.73
2024-05-09T01:16:07.042Z,97.73
2024-05-09T01:16:17.995Z,97.73
2024-05-09T01:16:28.912Z,97.73
2024-05-09T01:16:39.824Z,97.63
2024-05-09T01:16:50.764Z,97.63
2024-05-09T01:17:01.418Z,97.63
2024-05-09T01:17:12.471Z,97.63
2024-05-09T01:17:23.030Z,97.63
2024-05-09T01:17:33.720Z,97.63
2024-05-09T01:17:45.717Z,97.63
2024-05-09T01:17:55.976Z,97.63
2024-05-09T01:18:07.323Z,97.63
2024-05-09T01:18:16.948Z,97.63
2024-05-09T01:18:28.640Z,97.63
2024-05-09T01:18:38.645Z,97.63
2024-05-09T01:18:49.191Z,97.63
2024-05-09T01:18:59.686Z,97.63
2024-05-09T01:19:10.249Z,97.73
2024-05-09T01:19:20.811Z,97.73
2024-05-09T01:19:31.843Z,97.73
2024-05-09T01:19:42.384Z,97.73
2024-05-09T01:19:53.339Z,97.73
2024-05-09T01:20:06.144Z,97.83
2024-05-09T01:20:20.212Z,97.83
2024-05-09T01:21:06.998Z,97.94
2024-05-09T01:21:17.838Z,97.94
2024-05-09T01:21:29.334Z,97.94
2024-05-09T01:21:39.325Z,97.94
2024-05-09T01:21:50.597Z,97.94
2024-05-09T01:22:01.023Z,97.94
2024-05-09T01:22:11.938Z,97.94
2024-05-09T01:22:22.787Z,97.94
2024-05-09T01:22:33.742Z,97.94
2024-05-09T01:22:44.659Z,97.99
2024-05-09T01:22:55.683Z,97.99
2024-05-09T01:23:06.620Z,97.99
2024-05-09T01:23:17.339Z,97.94
2024-05-09T01:23:27.966Z,97.99
2024-05-09T01:23:38.643Z,97.99
2024-05-09T01:23:49.503Z,97.99
2024-05-09T01:24:00.456Z,97.99
2024-05-09T01:24:11.298Z,97.99
2024-05-09T01:24:22.283Z,97.99
2024-05-09T01:24:33.111Z,97.99
2024-05-09T01:24:44.068Z,97.99
2024-05-09T01:24:54.991Z,97.99
2024-05-09T01:25:05.943Z,97.99
2024-05-09T01:25:16.868Z,97.99
2024-05-09T01:25:27.812Z,97.99
2024-05-09T01:25:38.599Z,97.99
2024-05-09T01:25:49.541Z,97.99
2024-05-09T01:26:00.054Z,98.08
2024-05-09T01:26:10.869Z,98.08
2024-05-09T01:26:21.383Z,98.08
2024-05-09T01:26:32.395Z,98.19
2024-05-09T01:26:43.282Z,98.29
2024-05-09T01:26:54.019Z,98.29
2024-05-09T01:27:04.934Z,98.39
2024-05-09T01:27:15.812Z,98.39
2024-05-09T01:27:26.765Z,98.50
2024-05-09T01:27:37.688Z,98.60
2024-05-09T01:27:48.544Z,98.70
2024-05-09T01:27:59.520Z,98.70
2024-05-09T01:28:10.403Z,98.80
2024-05-09T01:28:21.254Z,98.91
2024-05-09T01:28:32.167Z,98.91
2024-05-09T01:28:43.068Z,99.01
2024-05-09T01:28:54.115Z,99.01
2024-05-09T01:29:04.554Z,99.01
2024-05-09T01:29:15.542Z,99.01
2024-05-09T01:29:26.658Z,99.11
2024-05-09T01:29:37.158Z,99.11
2024-05-09T01:29:48.049Z,99.11
2024-05-09T01:29:58.899Z,99.11
2024-05-09T01:30:16.936Z,99.11
2024-05-09T01:30:31.153Z,99.11
2024-05-09T01:30:35.542Z,99.21
2024-05-09T01:30:44.813Z,99.21
2024-05-09T01:30:52.717Z,99.21
2024-05-09T01:31:03.593Z,99.21
2024-05-09T01:31:14.574Z,99.21
2024-05-09T01:31:25.511Z,99.21
2024-05-09T01:31:37.340Z,99.32
2024-05-09T01:31:46.918Z,99.32
2024-05-09T01:31:57.876Z,99.32
2024-05-09T01:32:08.497Z,99.32
2024-05-09T01:32:18.988Z,99.32
2024-05-09T01:32:29.593Z,99.32
2024-05-09T01:32:41.483Z,99.32
2024-05-09T01:32:51.254Z,99.32
2024-05-09T01:33:02.092Z,99.32
2024-05-09T01:33:13.338Z,99.32
2024-05-09T01:33:23.207Z,99.42
2024-05-09T01:33:33.809Z,99.42
2024-05-09T01:33:44.391Z,99.42
2024-05-09T01:33:54.897Z,99.42
2024-05-09T01:34:05.388Z,99.52
2024-05-09T01:34:16.317Z,99.52
2024-05-09T01:34:27.141Z,99.52
2024-05-09T01:34:38.075Z,99.52
2024-05-09T01:34:49.112Z,99.52
2024-05-09T01:34:59.548Z,99.52
2024-05-09T01:35:10.446Z,99.52
2024-05-09T01:35:21.175Z,99.52
2024-05-09T01:35:31.888Z,99.63
2024-05-09T01:35:43.264Z,99.63
2024-05-09T01:35:53.297Z,99.63
2024-05-09T01:36:04.209Z,99.63
2024-05-09T01:36:15.107Z,99.73
2024-05-09T01:36:26.048Z,99.73
2024-05-09T01:36:37.019Z,99.73
2024-05-09T01:36:47.943Z,99.73
2024-05-09T01:36:58.859Z,99.73
2024-05-09T01:37:09.747Z,99.73
2024-05-09T01:37:20.723Z,99.73
2024-05-09T01:37:31.611Z,99.73
2024-05-09T01:37:42.586Z,99.73
2024-05-09T01:37:53.494Z,99.73
2024-05-09T01:38:04.585Z,99.73
2024-05-09T01:38:15.349Z,99.63
2024-05-09T01:38:26.331Z,99.73
2024-05-09T01:38:36.911Z,99.63
2024-05-09T01:38:47.511Z,99.63
2024-05-09T01:38:58.386Z,99.63
2024-05-09T01:39:09.299Z,99.63
2024-05-09T01:39:20.149Z,99.63
2024-05-09T01:39:31.051Z,99.73
2024-05-09T01:39:41.980Z,99.73
2024-05-09T01:39:52.896Z,99.73
2024-05-09T01:40:07.296Z,99.73
2024-05-09T01:40:18.653Z,99.73
2024-05-09T01:40:36.042Z,99.73
2024-05-09T01:40:39.826Z,99.83
2024-05-09T01:40:46.830Z,99.83
2024-05-09T01:40:57.728Z,99.83
2024-05-09T01:41:08.683Z,99.83
2024-05-09T01:41:19.616Z,99.83
2024-05-09T01:41:30.548Z,99.83
2024-05-09T01:41:41.008Z,99.83
2024-05-09T01:41:51.927Z,99.83
2024-05-09T01:42:02.827Z,99.79
2024-05-09T01:42:13.780Z,99.83
2024-05-09T01:42:24.705Z,99.83
2024-05-09T01:42:35.565Z,99.83
2024-05-09T01:42:46.494Z,99.83
2024-05-09T01:42:57.380Z,99.83
2024-05-09T01:43:09.470Z,99.83
2024-05-09T01:43:18.823Z,99.83
2024-05-09T01:43:29.747Z,99.83
2024-05-09T01:43:40.713Z,99.93
2024-05-09T01:43:51.607Z,99.93
2024-05-09T01:44:02.519Z,99.93
2024-05-09T01:44:13.607Z,99.89
2024-05-09T01:44:25.345Z,99.93
2024-05-09T01:44:35.068Z,99.89
2024-05-09T01:44:46.001Z,99.93
2024-05-09T01:44:56.569Z,99.89
2024-05-09T01:45:07.456Z,99.93
2024-05-09T01:45:18.400Z,99.89
2024-05-09T01:45:29.316Z,99.89
2024-05-09T01:45:40.377Z,99.89
2024-05-09T01:45:50.875Z,99.93
2024-05-09T01:46:01.820Z,99.89
2024-05-09T01:46:12.751Z,99.89
2024-05-09T01:46:23.598Z,99.89
2024-05-09T01:46:34.482Z,99.99
2024-05-09T01:46:45.513Z,99.99
2024-05-09T01:46:56.572Z,99.99
2024-05-09T01:47:07.013Z,99.99
2024-05-09T01:47:17.597Z,99.99
2024-05-09T01:47:28.120Z,99.99
2024-05-09T01:47:38.891Z,99.99
2024-05-09T01:47:49.514Z,99.99
2024-05-09T01:48:02.410Z,99.99
2024-05-09T01:48:11.432Z,99.99
2024-05-09T01:48:21.587Z,99.99
2024-05-09T01:48:32.395Z,99.99
2024-05-09T01:48:42.846Z,99.99
2024-05-09T01:48:53.815Z,99.99
2024-05-09T01:49:04.889Z,99.99
2024-05-09T01:49:15.782Z,99.99
2024-05-09T01:49:26.515Z,99.99
2024-05-09T01:49:37.099Z,99.99
2024-05-09T01:49:47.887Z,99.99
2024-05-09T01:49:59.670Z,99.99
2024-05-09T01:50:10.975Z,99.99
2024-05-09T01:50:28.958Z,99.99
2024-05-09T01:50:38.353Z,99.99
2024-05-09T01:50:43.314Z,99.99
2024-05-09T01:50:52.107Z,99.99
2024-05-09T01:51:02.926Z,99.99
2024-05-09T01:51:13.885Z,99.99
2024-05-09T01:51:24.896Z,99.99
2024-05-09T01:51:35.730Z,99.99
2024-05-09T01:51:46.408Z,99.99
2024-05-09T01:51:57.235Z,99.99
2024-05-09T01:52:08.174Z,99.99
2024-05-09T01:52:19.104Z,99.99
2024-05-09T01:52:29.979Z,99.99
2024-05-09T01:52:40.492Z,99.99
2024-05-09T01:52:51.499Z,99.99
2024-05-09T01:53:02.451Z,99.99
2024-05-09T01:53:14.088Z,99.99
2024-05-09T01:53:24.181Z,99.99
2024-05-09T01:53:35.110Z,99.99
2024-05-09T01:53:45.639Z,99.99
2024-05-09T01:53:56.515Z,99.99
2024-05-09T01:54:07.305Z,99.99
2024-05-09T01:54:18.163Z,99.99
2024-05-09T01:54:29.055Z,99.99
2024-05-09T01:54:39.977Z,99.99
2024-05-09T01:54:51.089Z,99.99
2024-05-09T01:55:04.606Z,99.99
2024-05-09T01:55:12.196Z,99.99
2024-05-09T01:55:23.122Z,99.99
2024-05-09T01:55:34.046Z,99.99
2024-05-09T01:55:45.052Z,99.99
2024-05-09T01:55:56.829Z,99.99
2024-05-09T01:56:06.576Z,99.99
2024-05-09T01:56:17.492Z,99.99
2024-05-09T01:56:28.438Z,99.99
2024-05-09T01:56:39.365Z,99.89
2024-05-09T01:56:51.080Z,99.89
2024-05-09T01:57:01.062Z,99.89
2024-05-09T01:57:11.913Z,99.89
2024-05-09T01:57:22.830Z,99.89
2024-05-09T01:57:33.721Z,99.79
2024-05-09T01:57:44.622Z,99.79
2024-05-09T01:57:55.453Z,99.79
2024-05-09T01:58:06.626Z,99.79
2024-05-09T01:58:17.111Z,99.79
2024-05-09T01:58:27.644Z,99.79
2024-05-09T01:58:38.406Z,99.79
2024-05-09T01:58:50.176Z,99.68
2024-05-09T01:59:00.966Z,99.68
2024-05-09T01:59:10.886Z,99.68
2024-05-09T01:59:21.860Z,99.68
2024-05-09T01:59:32.360Z,99.68
2024-05-09T01:59:42.866Z,99.68
2024-05-09T01:59:53.782Z,99.68
2024-05-09T02:00:06.048Z,99.68
2024-05-09T02:00:22.171Z,99.68
2024-05-09T02:00:36.342Z,99.68
2024-05-09T02:00:41.307Z,99.68
2024-05-09T02:00:48.750Z,99.68
2024-05-09T02:00:58.703Z,99.79
2024-05-09T02:01:09.690Z,99.79
2024-05-09T02:01:20.681Z,99.79
2024-05-09T02:01:31.609Z,99.79
2024-05-09T02:01:56.194Z,99.79
2024-05-09T02:01:56.987Z,99.79
2024-05-09T02:02:03.838Z,99.79
2024-05-09T02:02:14.683Z,99.79
2024-05-09T02:02:25.269Z,99.79
2024-05-09T02:02:36.199Z,99.79
2024-05-09T02:02:47.122Z,99.79
2024-05-09T02:02:58.750Z,99.79
2024-05-09T02:03:10.014Z,99.83
2024-05-09T02:03:19.402Z,99.83
2024-05-09T02:03:30.163Z,99.79
2024-05-09T02:03:40.595Z,99.79
2024-05-09T02:03:52.493Z,99.79
2024-05-09T02:04:02.617Z,99.79
2024-05-09T02:04:12.959Z,99.79
2024-05-09T02:04:23.698Z,99.79
2024-05-09T02:04:34.244Z,99.79
2024-05-09T02:04:44.885Z,99.83
2024-05-09T02:04:55.468Z,99.83
2024-05-09T02:05:06.429Z,99.79
2024-05-09T02:05:17.167Z,99.68
2024-05-09T02:05:27.773Z,99.68
2024-05-09T02:05:38.800Z,99.68
2024-05-09T02:05:49.878Z,99.68
2024-05-09T02:06:00.015Z,99.73
2024-05-09T02:06:11.048Z,99.68
2024-05-09T02:06:21.679Z,99.73
2024-05-09T02:06:32.634Z,99.73
2024-05-09T02:06:43.435Z,99.63
2024-05-09T02:06:54.373Z,99.63
2024-05-09T02:07:05.355Z,99.63
2024-05-09T02:07:16.220Z,99.63
2024-05-09T02:07:27.120Z,99.63
2024-05-09T02:07:38.067Z,99.63
2024-05-09T02:07:48.966Z,99.63
2024-05-09T02:07:59.965Z,99.63
2024-05-09T02:08:10.932Z,99.63
2024-05-09T02:08:22.702Z,99.63
2024-05-09T02:08:32.531Z,99.52
2024-05-09T02:08:43.073Z,99.52
2024-05-09T02:08:53.964Z,99.52
2024-05-09T02:09:05.013Z,99.42
2024-05-09T02:09:15.900Z,99.42
2024-05-09T02:09:26.754Z,99.42
2024-05-09T02:09:37.675Z,99.32
2024-05-09T02:09:48.588Z,99.32
2024-05-09T02:09:59.496Z,99.21
2024-05-09T02:10:16.514Z,99.21
2024-05-09T02:10:26.559Z,99.21
2024-05-09T02:10:33.556Z,99.11
2024-05-09T02:10:42.705Z,99.11
2024-05-09T02:10:54.535Z,99.11
2024-05-09T02:11:04.220Z,99.11
2024-05-09T02:11:14.838Z,99.01
2024-05-09T02:11:25.455Z,99.01
2024-05-09T02:11:36.006Z,99.01
2024-05-09T02:11:46.990Z,99.01
2024-05-09T02:11:57.704Z,99.01
2024-05-09T02:12:08.243Z,99.01
2024-05-09T02:12:18.975Z,98.91
2024-05-09T02:12:29.504Z,98.91
2024-05-09T02:12:40.366Z,98.91
2024-05-09T02:12:51.302Z,98.91
2024-05-09T02:13:02.238Z,98.91
2024-05-09T02:13:13.167Z,98.91
2024-05-09T02:13:24.139Z,98.91
2024-05-09T02:13:35.116Z,98.91
2024-05-09T02:13:46.076Z,99.01
2024-05-09T02:13:56.989Z,99.01
2024-05-09T02:14:07.903Z,99.01
2024-05-09T02:14:18.379Z,99.01
2024-05-09T02:14:29.451Z,99.01
2024-05-09T02:14:39.904Z,99.01
2024-05-09T02:14:50.847Z,99.01
2024-05-09T02:15:01.775Z,99.01
2024-05-09T02:15:12.339Z,99.01
2024-05-09T02:15:23.230Z,99.11
2024-05-09T02:15:34.229Z,99.11
2024-05-09T02:15:45.038Z,99.11
2024-05-09T02:15:55.514Z,99.11
2024-05-09T02:16:06.492Z,99.11
2024-05-09T02:16:17.374Z,99.11
2024-05-09T02:16:28.301Z,99.11
2024-05-09T02:16:39.173Z,99.11
2024-05-09T02:16:50.090Z,99.11
2024-05-09T02:17:00.889Z,99.11
2024-05-09T02:17:11.823Z,99.01
2024-05-09T02:17:22.908Z,99.01
2024-05-09T02:17:34.727Z,99.01
2024-05-09T02:17:44.546Z,99.01
2024-05-09T02:17:55.289Z,99.05
2024-05-09T02:18:06.047Z,99.05
2024-05-09T02:18:16.719Z,99.05
2024-05-09T02:18:27.453Z,99.05
2024-05-09T02:18:38.056Z,98.96
2024-05-09T02:18:48.574Z,98.96
2024-05-09T02:18:59.557Z,98.96
2024-05-09T02:19:10.645Z,98.96
2024-05-09T02:19:21.421Z,98.96
2024-05-09T02:19:32.138Z,99.05
2024-05-09T02:19:42.569Z,99.05
2024-05-09T02:19:53.575Z,99.05
2024-05-09T02:20:06.028Z,99.05
2024-05-09T02:20:22.590Z,99.05
2024-05-09T02:20:33.154Z,99.16
2024-05-09T02:20:37.643Z,99.16
2024-05-09T02:20:47.548Z,99.16
2024-05-09T02:20:58.445Z,99.16
2024-05-09T02:21:09.167Z,99.26
2024-05-09T02:21:20.074Z,99.26
2024-05-09T02:21:30.941Z,99.26
2024-05-09T02:21:41.893Z,99.26
2024-05-09T02:21:52.871Z,99.26
2024-05-09T02:22:03.788Z,99.37
2024-05-09T02:22:14.670Z,99.37